sensor_id;sensor_type;location;lat;lon;timestamp;P1;P2;P0
20157;PMS5003;10239;56.820;24.416;2023-04-29T00:01:58;3.20;3.20;0.00
20157;PMS5003;10239;56.820;24.416;2023-04-29T00:04:27;7.20;6.00;3.00
20157;PMS5003;10239;56.820;24.416;2023-04-29T00:06:55;3.40;3.40;1.00
20157;PMS5003;10239;56.820;24.416;2023-04-29T00:09:22;2.80;2.80;0.80
20157;PMS5003;10239;56.820;24.416;2023-04-29T00:11:50;6.20;3.20;1.00
20157;PMS5003;10239;56.820;24.416;2023-04-29T00:14:17;1.40;1.40;1.00
20157;PMS5003;10239;56.820;24.416;2023-04-29T00:16:45;4.00;4.00;1.00
20157;PMS5003;10239;56.820;24.416;2023-04-29T00:19:13;2.20;2.20;0.80
20157;PMS5003;10239;56.820;24.416;2023-04-29T00:21:40;5.80;3.00;0.60
20157;PMS5003;10239;56.820;24.416;2023-04-29T00:24:08;2.60;2.60;0.60
20157;PMS5003;10239;56.820;24.416;2023-04-29T00:26:36;3.80;2.20;1.00
20157;PMS5003;10239;56.820;24.416;2023-04-29T00:29:04;6.40;4.00;2.60
20157;PMS5003;10239;56.820;24.416;2023-04-29T00:31:31;3.60;3.00;1.00
20157;PMS5003;10239;56.820;24.416;2023-04-29T00:33:59;4.80;4.80;3.00
20157;PMS5003;10239;56.820;24.416;2023-04-29T00:36:27;6.20;3.60;0.80
20157;PMS5003;10239;56.820;24.416;2023-04-29T00:38:55;2.20;2.20;1.00
20157;PMS5003;10239;56.820;24.416;2023-04-29T00:41:24;3.40;3.40;1.00
20157;PMS5003;10239;56.820;24.416;2023-04-29T00:43:52;3.20;3.00;1.00
20157;PMS5003;10239;56.820;24.416;2023-04-29T00:46:19;5.60;5.60;1.00
20157;PMS5003;10239;56.820;24.416;2023-04-29T00:48:47;3.60;3.60;2.60
20157;PMS5003;10239;56.820;24.416;2023-04-29T00:51:15;5.60;3.80;1.00
20157;PMS5003;10239;56.820;24.416;2023-04-29T00:53:43;9.60;7.00;1.00
20157;PMS5003;10239;56.820;24.416;2023-04-29T00:56:14;5.80;5.00;1.00
20157;PMS5003;10239;56.820;24.416;2023-04-29T00:58:42;11.20;7.00;3.40
20157;PMS5003;10239;56.820;24.416;2023-04-29T01:01:15;19.80;10.00;3.80
20157;PMS5003;10239;56.820;24.416;2023-04-29T01:03:45;10.00;9.20;4.00
20157;PMS5003;10239;56.820;24.416;2023-04-29T01:06:18;10.20;6.80;3.00
20157;PMS5003;10239;56.820;24.416;2023-04-29T01:12:10;8.50;8.50;3.50
20157;PMS5003;10239;56.820;24.416;2023-04-29T01:14:54;6.25;4.00;3.00
20157;PMS5003;10239;56.820;24.416;2023-04-29T01:17:35;7.50;4.00;1.25
20157;PMS5003;10239;56.820;24.416;2023-04-29T01:20:26;4.00;3.00;1.00
20157;PMS5003;10239;56.820;24.416;2023-04-29T01:22:54;3.60;3.60;1.00
20157;PMS5003;10239;56.820;24.416;2023-04-29T01:25:22;12.00;9.00;3.75
20157;PMS5003;10239;56.820;24.416;2023-04-29T01:31:21;8.25;7.00;3.25
20157;PMS5003;10239;56.820;24.416;2023-04-29T01:40:24;6.75;1.50;1.00
20157;PMS5003;10239;56.820;24.416;2023-04-29T01:43:17;6.00;3.75;3.00
20157;PMS5003;10239;56.820;24.416;2023-04-29T01:45:47;4.00;4.00;2.00
20157;PMS5003;10239;56.820;24.416;2023-04-29T01:48:15;7.75;3.25;1.00
20157;PMS5003;10239;56.820;24.416;2023-04-29T01:50:43;3.50;3.50;3.00
20157;PMS5003;10239;56.820;24.416;2023-04-29T01:53:14;3.25;3.25;1.00
20157;PMS5003;10239;56.820;24.416;2023-04-29T01:55:43;5.00;5.00;3.00
20157;PMS5003;10239;56.820;24.416;2023-04-29T01:58:28;4.00;4.00;2.50
20157;PMS5003;10239;56.820;24.416;2023-04-29T02:01:31;4.00;4.00;2.00
20157;PMS5003;10239;56.820;24.416;2023-04-29T02:03:58;2.75;1.00;1.00
20157;PMS5003;10239;56.820;24.416;2023-04-29T02:06:26;6.25;3.75;1.50
20157;PMS5003;10239;56.820;24.416;2023-04-29T02:08:58;7.50;4.00;1.00
20157;PMS5003;10239;56.820;24.416;2023-04-29T02:11:26;8.00;5.50;3.00
20157;PMS5003;10239;56.820;24.416;2023-04-29T02:13:55;7.00;4.50;2.75
20157;PMS5003;10239;56.820;24.416;2023-04-29T02:16:23;5.00;5.00;2.00
20157;PMS5003;10239;56.820;24.416;2023-04-29T02:18:57;3.75;3.75;1.00
20157;PMS5003;10239;56.820;24.416;2023-04-29T02:21:24;10.00;9.00;4.00
20157;PMS5003;10239;56.820;24.416;2023-04-29T02:23:52;4.00;3.00;3.00
20157;PMS5003;10239;56.820;24.416;2023-04-29T02:26:22;9.50;9.00;3.25
20157;PMS5003;10239;56.820;24.416;2023-04-29T02:28:49;13.25;7.50;3.00
20157;PMS5003;10239;56.820;24.416;2023-04-29T02:31:19;8.50;5.25;3.00
20157;PMS5003;10239;56.820;24.416;2023-04-29T02:33:47;10.00;7.25;3.75
20157;PMS5003;10239;56.820;24.416;2023-04-29T02:36:14;9.75;6.00;3.25
20157;PMS5003;10239;56.820;24.416;2023-04-29T02:38:43;10.00;7.50;3.50
20157;PMS5003;10239;56.820;24.416;2023-04-29T02:41:15;14.25;3.75;2.00
20157;PMS5003;10239;56.820;24.416;2023-04-29T02:43:46;6.00;2.50;0.25
20157;PMS5003;10239;56.820;24.416;2023-04-29T02:46:17;8.50;4.00;1.00
20157;PMS5003;10239;56.820;24.416;2023-04-29T02:48:44;4.25;4.25;0.50
20157;PMS5003;10239;56.820;24.416;2023-04-29T02:51:13;6.50;4.00;2.00
20157;PMS5003;10239;56.820;24.416;2023-04-29T02:53:40;6.00;6.00;3.00
20157;PMS5003;10239;56.820;24.416;2023-04-29T02:56:08;16.50;7.50;4.00
20157;PMS5003;10239;56.820;24.416;2023-04-29T02:58:35;6.75;6.75;3.00
20157;PMS5003;10239;56.820;24.416;2023-04-29T03:01:03;12.75;9.00;4.00
20157;PMS5003;10239;56.820;24.416;2023-04-29T03:03:30;0.00;0.00;0.00
20157;PMS5003;10239;56.820;24.416;2023-04-29T03:05:58;9.00;7.50;1.50
20157;PMS5003;10239;56.820;24.416;2023-04-29T03:08:26;9.00;6.50;4.00
20157;PMS5003;10239;56.820;24.416;2023-04-29T03:10:54;5.00;3.00;1.50
20157;PMS5003;10239;56.820;24.416;2023-04-29T03:13:22;3.00;1.00;0.00
20157;PMS5003;10239;56.820;24.416;2023-04-29T03:15:50;6.25;6.00;3.00
20157;PMS5003;10239;56.820;24.416;2023-04-29T03:18:17;7.00;7.00;3.00
20157;PMS5003;10239;56.820;24.416;2023-04-29T03:20:46;6.00;6.00;3.00
20157;PMS5003;10239;56.820;24.416;2023-04-29T03:23:14;6.00;3.50;1.00
20157;PMS5003;10239;56.820;24.416;2023-04-29T03:25:41;11.00;9.00;3.25
20157;PMS5003;10239;56.820;24.416;2023-04-29T03:28:09;6.75;6.75;3.50
20157;PMS5003;10239;56.820;24.416;2023-04-29T03:30:37;8.75;5.75;3.25
20157;PMS5003;10239;56.820;24.416;2023-04-29T03:33:04;6.75;6.25;3.00
20157;PMS5003;10239;56.820;24.416;2023-04-29T03:35:32;4.25;3.25;0.00
20157;PMS5003;10239;56.820;24.416;2023-04-29T03:38:18;3.75;3.75;1.00
20157;PMS5003;10239;56.820;24.416;2023-04-29T03:40:47;5.75;5.50;3.00
20157;PMS5003;10239;56.820;24.416;2023-04-29T03:43:16;6.00;6.00;3.00
20157;PMS5003;10239;56.820;24.416;2023-04-29T03:45:44;10.50;6.25;3.00
20157;PMS5003;10239;56.820;24.416;2023-04-29T03:48:15;2.00;2.00;0.00
20157;PMS5003;10239;56.820;24.416;2023-04-29T03:50:42;6.00;6.00;3.00
20157;PMS5003;10239;56.820;24.416;2023-04-29T03:53:10;7.00;3.00;0.25
20157;PMS5003;10239;56.820;24.416;2023-04-29T03:55:39;5.20;3.00;0.00
20157;PMS5003;10239;56.820;24.416;2023-04-29T03:58:08;4.50;3.75;2.50
20157;PMS5003;10239;56.820;24.416;2023-04-29T04:00:36;6.00;6.00;2.20
20157;PMS5003;10239;56.820;24.416;2023-04-29T04:03:08;3.00;3.00;1.00
20157;PMS5003;10239;56.820;24.416;2023-04-29T04:05:37;13.20;9.00;4.00
20157;PMS5003;10239;56.820;24.416;2023-04-29T04:08:09;9.00;6.80;3.00
20157;PMS5003;10239;56.820;24.416;2023-04-29T04:10:48;6.60;4.80;1.00
20157;PMS5003;10239;56.820;24.416;2023-04-29T04:13:37;9.60;7.00;3.80
20157;PMS5003;10239;56.820;24.416;2023-04-29T04:16:05;6.00;6.00;3.00
20157;PMS5003;10239;56.820;24.416;2023-04-29T04:18:32;8.20;8.20;3.00
20157;PMS5003;10239;56.820;24.416;2023-04-29T04:21:04;13.60;5.80;3.00
20157;PMS5003;10239;56.820;24.416;2023-04-29T04:23:34;7.00;4.80;3.00
20157;PMS5003;10239;56.820;24.416;2023-04-29T04:26:02;10.40;9.20;3.40
20157;PMS5003;10239;56.820;24.416;2023-04-29T04:28:42;6.20;3.20;1.00
20157;PMS5003;10239;56.820;24.416;2023-04-29T04:31:28;6.20;3.20;2.60
20157;PMS5003;10239;56.820;24.416;2023-04-29T04:33:57;5.00;4.00;1.80
20157;PMS5003;10239;56.820;24.416;2023-04-29T04:36:27;3.40;3.40;1.00
20157;PMS5003;10239;56.820;24.416;2023-04-29T04:38:55;7.20;4.00;1.00
20157;PMS5003;10239;56.820;24.416;2023-04-29T04:41:23;4.40;4.40;1.00
20157;PMS5003;10239;56.820;24.416;2023-04-29T04:43:52;5.40;3.40;1.00
20157;PMS5003;10239;56.820;24.416;2023-04-29T04:46:32;4.40;4.00;2.20
20157;PMS5003;10239;56.820;24.416;2023-04-29T04:49:05;6.80;3.60;1.60
20157;PMS5003;10239;56.820;24.416;2023-04-29T04:51:40;4.20;4.20;1.00
20157;PMS5003;10239;56.820;24.416;2023-04-29T04:54:11;4.00;1.80;1.00
20157;PMS5003;10239;56.820;24.416;2023-04-29T04:56:39;2.80;2.80;1.00
20157;PMS5003;10239;56.820;24.416;2023-04-29T04:59:07;9.20;4.40;2.00
20157;PMS5003;10239;56.820;24.416;2023-04-29T05:01:38;5.40;3.20;1.80
20157;PMS5003;10239;56.820;24.416;2023-04-29T05:04:07;2.20;2.00;1.00
20157;PMS5003;10239;56.820;24.416;2023-04-29T05:06:35;1.00;1.00;0.00
20157;PMS5003;10239;56.820;24.416;2023-04-29T05:09:03;2.60;1.40;0.20
20157;PMS5003;10239;56.820;24.416;2023-04-29T05:11:31;4.25;4.25;2.00
20157;PMS5003;10239;56.820;24.416;2023-04-29T05:14:14;3.50;3.50;2.00
20157;PMS5003;10239;56.820;24.416;2023-04-29T05:16:41;4.00;2.00;1.00
20157;PMS5003;10239;56.820;24.416;2023-04-29T05:19:11;4.00;2.00;1.00
20157;PMS5003;10239;56.820;24.416;2023-04-29T05:21:39;3.00;3.00;2.00
20157;PMS5003;10239;56.820;24.416;2023-04-29T05:24:08;3.75;3.75;1.00
20157;PMS5003;10239;56.820;24.416;2023-04-29T05:26:36;1.50;1.50;1.00
20157;PMS5003;10239;56.820;24.416;2023-04-29T05:29:05;3.50;2.75;1.00
20157;PMS5003;10239;56.820;24.416;2023-04-29T05:31:42;6.50;2.00;1.25
20157;PMS5003;10239;56.820;24.416;2023-04-29T05:34:10;3.50;2.50;0.50
20157;PMS5003;10239;56.820;24.416;2023-04-29T05:36:37;2.25;2.00;1.00
20157;PMS5003;10239;56.820;24.416;2023-04-29T05:39:04;4.50;2.75;0.75
20157;PMS5003;10239;56.820;24.416;2023-04-29T05:41:32;2.25;1.75;0.75
20157;PMS5003;10239;56.820;24.416;2023-04-29T05:44:22;1.50;1.50;0.75
20157;PMS5003;10239;56.820;24.416;2023-04-29T05:46:50;1.00;1.00;1.00
20157;PMS5003;10239;56.820;24.416;2023-04-29T05:49:17;4.00;2.50;1.00
20157;PMS5003;10239;56.820;24.416;2023-04-29T05:51:45;2.00;0.00;0.00
20157;PMS5003;10239;56.820;24.416;2023-04-29T05:54:12;2.60;2.60;1.00
20157;PMS5003;10239;56.820;24.416;2023-04-29T05:56:40;1.60;1.60;1.00
20157;PMS5003;10239;56.820;24.416;2023-04-29T05:59:08;3.00;2.40;1.00
20157;PMS5003;10239;56.820;24.416;2023-04-29T06:01:35;1.80;1.80;0.80
20157;PMS5003;10239;56.820;24.416;2023-04-29T06:04:03;3.00;1.20;0.20
20157;PMS5003;10239;56.820;24.416;2023-04-29T06:06:45;1.00;1.00;0.00
20157;PMS5003;10239;56.820;24.416;2023-04-29T06:09:18;1.20;1.00;1.00
20157;PMS5003;10239;56.820;24.416;2023-04-29T06:11:55;1.40;1.40;0.20
20157;PMS5003;10239;56.820;24.416;2023-04-29T06:14:24;2.40;0.80;0.00
20157;PMS5003;10239;56.820;24.416;2023-04-29T06:16:51;2.00;2.00;1.00
20157;PMS5003;10239;56.820;24.416;2023-04-29T06:19:19;3.60;3.60;2.00
20157;PMS5003;10239;56.820;24.416;2023-04-29T06:21:49;2.75;2.75;1.00
20157;PMS5003;10239;56.820;24.416;2023-04-29T06:24:17;13.25;10.25;4.75
20157;PMS5003;10239;56.820;24.416;2023-04-29T06:26:45;2.00;2.00;1.00
20157;PMS5003;10239;56.820;24.416;2023-04-29T06:29:12;2.00;2.00;1.50
20157;PMS5003;10239;56.820;24.416;2023-04-29T06:31:40;3.20;1.60;1.00
20157;PMS5003;10239;56.820;24.416;2023-04-29T06:34:08;3.80;2.60;0.80
20157;PMS5003;10239;56.820;24.416;2023-04-29T06:36:46;3.20;2.00;1.00
20157;PMS5003;10239;56.820;24.416;2023-04-29T06:39:28;1.00;1.00;0.00
20157;PMS5003;10239;56.820;24.416;2023-04-29T06:42:13;3.80;2.80;1.00
20157;PMS5003;10239;56.820;24.416;2023-04-29T06:44:49;1.80;1.80;1.00
20157;PMS5003;10239;56.820;24.416;2023-04-29T06:47:25;0.00;0.00;0.00
20157;PMS5003;10239;56.820;24.416;2023-04-29T06:50:11;1.40;1.40;1.00
20157;PMS5003;10239;56.820;24.416;2023-04-29T06:52:38;0.00;0.00;0.00
20157;PMS5003;10239;56.820;24.416;2023-04-29T06:55:08;2.00;2.00;0.40
20157;PMS5003;10239;56.820;24.416;2023-04-29T06:57:40;2.00;2.00;1.00
20157;PMS5003;10239;56.820;24.416;2023-04-29T07:00:07;0.20;0.20;0.00
20157;PMS5003;10239;56.820;24.416;2023-04-29T07:02:35;1.20;1.20;0.40
20157;PMS5003;10239;56.820;24.416;2023-04-29T07:05:08;1.60;1.60;0.60
20157;PMS5003;10239;56.820;24.416;2023-04-29T07:07:36;2.60;2.60;1.00
20157;PMS5003;10239;56.820;24.416;2023-04-29T07:10:04;0.00;0.00;0.00
20157;PMS5003;10239;56.820;24.416;2023-04-29T07:12:31;2.80;1.60;1.00
20157;PMS5003;10239;56.820;24.416;2023-04-29T07:15:00;3.00;3.00;1.00
20157;PMS5003;10239;56.820;24.416;2023-04-29T07:17:28;3.20;1.60;1.00
20157;PMS5003;10239;56.820;24.416;2023-04-29T07:19:57;0.00;0.00;0.00
20157;PMS5003;10239;56.820;24.416;2023-04-29T07:22:24;4.00;2.00;0.40
20157;PMS5003;10239;56.820;24.416;2023-04-29T07:24:55;3.60;2.20;0.60
20157;PMS5003;10239;56.820;24.416;2023-04-29T07:27:23;4.25;1.75;0.75
20157;PMS5003;10239;56.820;24.416;2023-04-29T07:29:51;2.75;1.00;1.00
20157;PMS5003;10239;56.820;24.416;2023-04-29T07:32:18;4.00;2.80;1.00
20157;PMS5003;10239;56.820;24.416;2023-04-29T07:34:46;1.20;1.20;0.60
20157;PMS5003;10239;56.820;24.416;2023-04-29T07:37:14;1.40;1.40;0.40
20157;PMS5003;10239;56.820;24.416;2023-04-29T07:39:41;3.25;2.75;1.00
20157;PMS5003;10239;56.820;24.416;2023-04-29T07:42:09;3.00;1.25;0.25
20157;PMS5003;10239;56.820;24.416;2023-04-29T07:44:36;0.00;0.00;0.00
20157;PMS5003;10239;56.820;24.416;2023-04-29T07:47:04;0.00;0.00;0.00
20157;PMS5003;10239;56.820;24.416;2023-04-29T07:49:33;0.00;0.00;0.00
20157;PMS5003;10239;56.820;24.416;2023-04-29T07:52:01;1.00;1.00;0.00
20157;PMS5003;10239;56.820;24.416;2023-04-29T07:54:29;1.00;1.00;0.00
20157;PMS5003;10239;56.820;24.416;2023-04-29T07:56:57;1.00;1.00;0.25
20157;PMS5003;10239;56.820;24.416;2023-04-29T07:59:26;1.00;1.00;1.00
20157;PMS5003;10239;56.820;24.416;2023-04-29T08:01:54;0.50;0.50;0.00
20157;PMS5003;10239;56.820;24.416;2023-04-29T08:04:21;0.00;0.00;0.00
20157;PMS5003;10239;56.820;24.416;2023-04-29T08:07:06;2.67;1.00;0.00
20157;PMS5003;10239;56.820;24.416;2023-04-29T08:09:35;0.75;0.75;0.00
20157;PMS5003;10239;56.820;24.416;2023-04-29T08:12:03;0.00;0.00;0.00
20157;PMS5003;10239;56.820;24.416;2023-04-29T08:14:31;0.50;0.50;0.00
20157;PMS5003;10239;56.820;24.416;2023-04-29T08:16:59;0.00;0.00;0.00
20157;PMS5003;10239;56.820;24.416;2023-04-29T08:19:26;0.00;0.00;0.00
20157;PMS5003;10239;56.820;24.416;2023-04-29T08:21:54;0.00;0.00;0.00
20157;PMS5003;10239;56.820;24.416;2023-04-29T08:24:22;2.00;0.25;0.00
20157;PMS5003;10239;56.820;24.416;2023-04-29T08:26:49;1.00;0.00;0.00
20157;PMS5003;10239;56.820;24.416;2023-04-29T08:29:18;0.00;0.00;0.00
20157;PMS5003;10239;56.820;24.416;2023-04-29T08:31:46;1.25;1.00;0.00
20157;PMS5003;10239;56.820;24.416;2023-04-29T08:34:14;0.00;0.00;0.00
20157;PMS5003;10239;56.820;24.416;2023-04-29T08:36:42;0.00;0.00;0.00
20157;PMS5003;10239;56.820;24.416;2023-04-29T08:39:09;0.00;0.00;0.00
20157;PMS5003;10239;56.820;24.416;2023-04-29T08:41:37;0.25;0.25;0.00
20157;PMS5003;10239;56.820;24.416;2023-04-29T08:44:05;1.75;0.25;0.00
20157;PMS5003;10239;56.820;24.416;2023-04-29T08:46:33;0.00;0.00;0.00
20157;PMS5003;10239;56.820;24.416;2023-04-29T08:49:02;0.00;0.00;0.00
20157;PMS5003;10239;56.820;24.416;2023-04-29T08:51:29;0.00;0.00;0.00
20157;PMS5003;10239;56.820;24.416;2023-04-29T08:53:58;0.00;0.00;0.00
20157;PMS5003;10239;56.820;24.416;2023-04-29T08:56:26;0.00;0.00;0.00
20157;PMS5003;10239;56.820;24.416;2023-04-29T08:58:57;0.00;0.00;0.00
20157;PMS5003;10239;56.820;24.416;2023-04-29T09:01:27;0.00;0.00;0.00
20157;PMS5003;10239;56.820;24.416;2023-04-29T09:04:09;0.50;0.50;0.00
20157;PMS5003;10239;56.820;24.416;2023-04-29T09:06:47;0.25;0.25;0.00
20157;PMS5003;10239;56.820;24.416;2023-04-29T09:09:15;1.00;1.00;0.00
20157;PMS5003;10239;56.820;24.416;2023-04-29T09:11:46;0.75;0.75;0.00
20157;PMS5003;10239;56.820;24.416;2023-04-29T09:14:14;0.50;0.00;0.00
20157;PMS5003;10239;56.820;24.416;2023-04-29T09:16:45;0.00;0.00;0.00
20157;PMS5003;10239;56.820;24.416;2023-04-29T09:19:29;0.00;0.00;0.00
20157;PMS5003;10239;56.820;24.416;2023-04-29T09:21:58;1.00;1.00;0.00
20157;PMS5003;10239;56.820;24.416;2023-04-29T09:24:28;0.00;0.00;0.00
20157;PMS5003;10239;56.820;24.416;2023-04-29T09:26:58;0.00;0.00;0.00
20157;PMS5003;10239;56.820;24.416;2023-04-29T09:29:26;0.50;0.50;0.00
20157;PMS5003;10239;56.820;24.416;2023-04-29T09:31:54;0.75;0.75;0.50
20157;PMS5003;10239;56.820;24.416;2023-04-29T09:34:31;0.00;0.00;0.00
20157;PMS5003;10239;56.820;24.416;2023-04-29T09:37:24;0.00;0.00;0.00
20157;PMS5003;10239;56.820;24.416;2023-04-29T09:39:53;1.00;1.00;0.00
20157;PMS5003;10239;56.820;24.416;2023-04-29T09:42:21;0.00;0.00;0.00
20157;PMS5003;10239;56.820;24.416;2023-04-29T09:44:49;0.00;0.00;0.00
20157;PMS5003;10239;56.820;24.416;2023-04-29T09:47:18;0.75;0.75;0.00
20157;PMS5003;10239;56.820;24.416;2023-04-29T09:50:09;0.00;0.00;0.00
20157;PMS5003;10239;56.820;24.416;2023-04-29T09:52:42;0.25;0.25;0.00
20157;PMS5003;10239;56.820;24.416;2023-04-29T09:55:09;0.00;0.00;0.00
20157;PMS5003;10239;56.820;24.416;2023-04-29T09:57:38;0.00;0.00;0.00
20157;PMS5003;10239;56.820;24.416;2023-04-29T10:00:11;0.50;0.50;0.00
20157;PMS5003;10239;56.820;24.416;2023-04-29T10:02:40;1.00;1.00;0.00
20157;PMS5003;10239;56.820;24.416;2023-04-29T10:05:15;0.00;0.00;0.00
20157;PMS5003;10239;56.820;24.416;2023-04-29T10:07:44;0.50;0.50;0.00
20157;PMS5003;10239;56.820;24.416;2023-04-29T10:10:15;1.00;1.00;0.00
20157;PMS5003;10239;56.820;24.416;2023-04-29T10:12:44;1.00;1.00;0.00
20157;PMS5003;10239;56.820;24.416;2023-04-29T10:18:20;3.00;1.80;0.00
20157;PMS5003;10239;56.820;24.416;2023-04-29T10:20:48;2.00;0.00;0.00
20157;PMS5003;10239;56.820;24.416;2023-04-29T10:23:18;1.80;1.00;0.40
20157;PMS5003;10239;56.820;24.416;2023-04-29T10:25:48;1.25;1.25;0.25
20157;PMS5003;10239;56.820;24.416;2023-04-29T10:28:19;0.50;0.50;0.50
20157;PMS5003;10239;56.820;24.416;2023-04-29T10:30:49;3.00;0.75;0.00
20157;PMS5003;10239;56.820;24.416;2023-04-29T10:33:18;1.75;1.25;1.00
20157;PMS5003;10239;56.820;24.416;2023-04-29T10:35:49;0.00;0.00;0.00
20157;PMS5003;10239;56.820;24.416;2023-04-29T10:38:23;1.00;1.00;1.00
20157;PMS5003;10239;56.820;24.416;2023-04-29T10:41:26;2.00;0.50;0.00
20157;PMS5003;10239;56.820;24.416;2023-04-29T10:43:57;2.50;2.50;1.00
20157;PMS5003;10239;56.820;24.416;2023-04-29T10:46:27;1.25;1.25;0.75
20157;PMS5003;10239;56.820;24.416;2023-04-29T10:49:04;0.00;0.00;0.00
20157;PMS5003;10239;56.820;24.416;2023-04-29T10:51:34;1.67;1.00;0.00
20157;PMS5003;10239;56.820;24.416;2023-04-29T10:54:12;0.75;0.75;0.00
20157;PMS5003;10239;56.820;24.416;2023-04-29T10:56:48;1.50;1.50;1.00
20157;PMS5003;10239;56.820;24.416;2023-04-29T10:59:21;2.00;2.00;1.00
20157;PMS5003;10239;56.820;24.416;2023-04-29T11:02:09;2.00;2.00;1.25
20157;PMS5003;10239;56.820;24.416;2023-04-29T11:05:05;2.75;2.00;1.00
20157;PMS5003;10239;56.820;24.416;2023-04-29T11:07:38;1.00;1.00;1.00
20157;PMS5003;10239;56.820;24.416;2023-04-29T11:10:07;4.75;2.50;1.50
20157;PMS5003;10239;56.820;24.416;2023-04-29T11:12:35;1.75;1.75;0.50
20157;PMS5003;10239;56.820;24.416;2023-04-29T11:15:03;2.25;1.75;1.00
20157;PMS5003;10239;56.820;24.416;2023-04-29T11:17:36;3.25;2.50;0.50
20157;PMS5003;10239;56.820;24.416;2023-04-29T11:20:08;2.50;2.50;1.25
20157;PMS5003;10239;56.820;24.416;2023-04-29T11:22:40;2.00;2.00;1.00
20157;PMS5003;10239;56.820;24.416;2023-04-29T11:25:17;2.00;2.00;1.00
20157;PMS5003;10239;56.820;24.416;2023-04-29T11:27:44;2.25;2.25;1.00
20157;PMS5003;10239;56.820;24.416;2023-04-29T11:30:15;2.50;2.50;1.00
20157;PMS5003;10239;56.820;24.416;2023-04-29T11:32:44;1.75;1.75;1.25
20157;PMS5003;10239;56.820;24.416;2023-04-29T11:35:13;2.50;1.50;0.25
20157;PMS5003;10239;56.820;24.416;2023-04-29T11:37:42;2.50;1.50;1.00
20157;PMS5003;10239;56.820;24.416;2023-04-29T11:40:12;4.00;4.00;1.75
20157;PMS5003;10239;56.820;24.416;2023-04-29T11:42:42;3.00;3.00;1.75
20157;PMS5003;10239;56.820;24.416;2023-04-29T11:45:16;4.25;4.25;0.75
20157;PMS5003;10239;56.820;24.416;2023-04-29T11:47:44;3.75;3.75;1.50
20157;PMS5003;10239;56.820;24.416;2023-04-29T11:50:14;4.00;3.50;2.00
20157;PMS5003;10239;56.820;24.416;2023-04-29T11:52:45;1.00;1.00;1.00
20157;PMS5003;10239;56.820;24.416;2023-04-29T11:55:19;2.75;2.50;1.75
20157;PMS5003;10239;56.820;24.416;2023-04-29T11:57:48;3.00;2.00;1.00
20157;PMS5003;10239;56.820;24.416;2023-04-29T12:00:16;2.50;1.25;1.00
20157;PMS5003;10239;56.820;24.416;2023-04-29T12:02:44;2.00;2.00;0.50
20157;PMS5003;10239;56.820;24.416;2023-04-29T12:05:13;4.50;4.00;1.50
20157;PMS5003;10239;56.820;24.416;2023-04-29T12:07:43;4.25;4.25;1.00
20157;PMS5003;10239;56.820;24.416;2023-04-29T12:10:11;4.00;2.25;2.00
20157;PMS5003;10239;56.820;24.416;2023-04-29T12:12:39;6.00;4.00;2.00
20157;PMS5003;10239;56.820;24.416;2023-04-29T12:15:09;4.00;4.00;2.00
20157;PMS5003;10239;56.820;24.416;2023-04-29T12:17:38;3.00;3.00;2.00
20157;PMS5003;10239;56.820;24.416;2023-04-29T12:20:07;3.50;2.50;1.50
20157;PMS5003;10239;56.820;24.416;2023-04-29T12:22:36;3.50;3.50;2.75
20157;PMS5003;10239;56.820;24.416;2023-04-29T12:25:04;4.25;4.25;2.50
20157;PMS5003;10239;56.820;24.416;2023-04-29T12:27:33;4.25;2.75;1.00
20157;PMS5003;10239;56.820;24.416;2023-04-29T12:30:05;4.50;3.25;2.00
20157;PMS5003;10239;56.820;24.416;2023-04-29T12:32:35;6.25;4.25;2.00
20157;PMS5003;10239;56.820;24.416;2023-04-29T12:35:04;4.00;4.00;2.50
20157;PMS5003;10239;56.820;24.416;2023-04-29T12:37:33;6.00;4.75;2.00
20157;PMS5003;10239;56.820;24.416;2023-04-29T12:40:01;3.25;3.25;1.50
20157;PMS5003;10239;56.820;24.416;2023-04-29T12:42:32;3.00;3.00;1.75
20157;PMS5003;10239;56.820;24.416;2023-04-29T12:45:00;2.75;2.75;1.00
20157;PMS5003;10239;56.820;24.416;2023-04-29T12:47:31;6.75;4.75;2.25
20157;PMS5003;10239;56.820;24.416;2023-04-29T12:50:04;3.00;3.00;2.00
20157;PMS5003;10239;56.820;24.416;2023-04-29T12:52:33;3.00;3.00;1.25
20157;PMS5003;10239;56.820;24.416;2023-04-29T12:55:02;3.75;3.75;2.50
20157;PMS5003;10239;56.820;24.416;2023-04-29T12:57:30;4.25;3.50;2.00
20157;PMS5003;10239;56.820;24.416;2023-04-29T12:59:58;6.00;4.50;2.00
20157;PMS5003;10239;56.820;24.416;2023-04-29T13:02:26;6.75;4.00;2.25
20157;PMS5003;10239;56.820;24.416;2023-04-29T13:04:54;5.50;3.25;2.00
20157;PMS5003;10239;56.820;24.416;2023-04-29T13:07:22;3.00;3.00;2.00
20157;PMS5003;10239;56.820;24.416;2023-04-29T13:09:50;5.00;5.00;2.00
20157;PMS5003;10239;56.820;24.416;2023-04-29T13:12:17;4.25;4.25;3.00
20157;PMS5003;10239;56.820;24.416;2023-04-29T13:14:44;3.75;3.75;1.00
20157;PMS5003;10239;56.820;24.416;2023-04-29T13:17:12;5.25;5.25;2.00
20157;PMS5003;10239;56.820;24.416;2023-04-29T13:19:40;4.25;4.00;1.00
20157;PMS5003;10239;56.820;24.416;2023-04-29T13:22:17;3.75;3.75;2.25
20157;PMS5003;10239;56.820;24.416;2023-04-29T13:24:45;4.50;4.50;2.25
20157;PMS5003;10239;56.820;24.416;2023-04-29T13:27:13;4.75;3.75;2.50
20157;PMS5003;10239;56.820;24.416;2023-04-29T13:29:40;5.50;4.00;2.00
20157;PMS5003;10239;56.820;24.416;2023-04-29T13:32:08;6.50;5.00;2.50
20157;PMS5003;10239;56.820;24.416;2023-04-29T13:34:36;5.00;4.25;2.75
20157;PMS5003;10239;56.820;24.416;2023-04-29T13:37:04;8.00;6.25;3.00
20157;PMS5003;10239;56.820;24.416;2023-04-29T13:39:31;6.00;4.75;3.50
20157;PMS5003;10239;56.820;24.416;2023-04-29T13:42:04;4.75;4.00;2.00
20157;PMS5003;10239;56.820;24.416;2023-04-29T13:44:32;4.50;4.50;2.00
20157;PMS5003;10239;56.820;24.416;2023-04-29T13:47:19;7.50;4.25;2.00
20157;PMS5003;10239;56.820;24.416;2023-04-29T13:49:52;5.00;4.00;2.50
20157;PMS5003;10239;56.820;24.416;2023-04-29T13:52:39;4.00;4.00;2.00
20157;PMS5003;10239;56.820;24.416;2023-04-29T13:55:10;3.80;3.40;2.60
20157;PMS5003;10239;56.820;24.416;2023-04-29T13:57:40;5.20;5.20;2.00
20157;PMS5003;10239;56.820;24.416;2023-04-29T14:00:11;3.00;3.00;1.00
20157;PMS5003;10239;56.820;24.416;2023-04-29T14:03:00;2.40;2.40;0.60
20157;PMS5003;10239;56.820;24.416;2023-04-29T14:05:29;4.75;3.50;2.50
20157;PMS5003;10239;56.820;24.416;2023-04-29T14:07:57;5.00;1.25;1.00
20157;PMS5003;10239;56.820;24.416;2023-04-29T14:10:25;4.50;4.00;2.00
20157;PMS5003;10239;56.820;24.416;2023-04-29T14:12:52;4.20;4.20;3.00
20157;PMS5003;10239;56.820;24.416;2023-04-29T14:15:20;7.50;4.00;2.00
20157;PMS5003;10239;56.820;24.416;2023-04-29T14:17:48;5.25;4.00;2.75
20157;PMS5003;10239;56.820;24.416;2023-04-29T14:20:16;4.50;4.00;2.00
20157;PMS5003;10239;56.820;24.416;2023-04-29T14:22:43;5.00;4.25;2.50
20157;PMS5003;10239;56.820;24.416;2023-04-29T14:25:11;6.75;5.75;3.00
20157;PMS5003;10239;56.820;24.416;2023-04-29T14:27:39;5.50;5.50;2.75
20157;PMS5003;10239;56.820;24.416;2023-04-29T14:30:07;7.25;5.00;2.00
20157;PMS5003;10239;56.820;24.416;2023-04-29T14:32:35;4.75;4.75;2.00
20157;PMS5003;10239;56.820;24.416;2023-04-29T14:35:03;5.00;4.50;2.00
20157;PMS5003;10239;56.820;24.416;2023-04-29T14:37:31;6.00;4.50;2.75
20157;PMS5003;10239;56.820;24.416;2023-04-29T14:39:59;5.00;5.00;2.50
20157;PMS5003;10239;56.820;24.416;2023-04-29T14:42:27;4.00;4.00;2.00
20157;PMS5003;10239;56.820;24.416;2023-04-29T14:44:54;2.50;2.50;2.00